Terminal Aerodrome Forecast
Issued by NWS Des Moines, IA

Home | Current Version | Previous Version | Text Only | Print | Product List | Glossary On
Versions: 1 2 3 4 5 6 7 8 9 10 11 12 13 14 15 16 17 18 19 20 21 22 23 24 25 26 27 28 29 30
000
FTUS43 KDMX 280539
TAFALO
TAF
KALO 280539Z 2806/2906 00000KT P6SM SKC
     FM281300 05005KT P6SM BKN150
     FM281600 07008KT P6SM VCSH BKN090
     FM281800 06008KT P6SM -RA OVC040
     FM282000 06009KT P6SM VCSH OVC029
     FM290000 04009G16KT P6SM OVC017=

USA.gov is the U.S. government's official web portal to all federal, state and local government web resources and services.